createdAt,value
2022-08-20T00:03:09.341Z,26.05
2022-08-20T00:08:13.130Z,25.08
2022-08-20T00:13:21.756Z,27.03
2022-08-20T00:18:24.634Z,28.41
2022-08-20T00:23:27.442Z,28.28
2022-08-20T00:28:30.258Z,26.86
2022-08-20T00:33:33.313Z,28.38
2022-08-20T00:38:37.947Z,28.04
2022-08-20T00:43:48.473Z,26.08
2022-08-20T00:48:55.871Z,26.22
2022-08-20T00:54:22.893Z,27.89
2022-08-20T00:59:31.027Z,26.71
2022-08-20T01:04:35.649Z,27.51
2022-08-20T01:09:58.155Z,28.40
2022-08-20T01:15:04.778Z,27.85
2022-08-20T01:20:16.015Z,25.80
2022-08-20T01:25:44.512Z,26.07
2022-08-20T01:30:47.205Z,27.80
2022-08-20T01:35:50.543Z,28.50
2022-08-20T01:41:30.513Z,28.07
2022-08-20T01:46:38.142Z,25.91
2022-08-20T01:51:46.778Z,26.14
2022-08-20T01:57:02.401Z,27.92
2022-08-20T02:02:07.206Z,28.57
2022-08-20T02:07:18.939Z,28.03
2022-08-20T02:12:21.678Z,26.17
2022-08-20T02:17:25.975Z,27.13
2022-08-20T02:22:40.584Z,28.40
2022-08-20T02:27:49.641Z,28.00
2022-08-20T02:32:52.395Z,26.28
2022-08-20T02:37:59.216Z,27.66
2022-08-20T02:43:04.543Z,28.61
2022-08-20T02:48:07.398Z,27.30
2022-08-20T02:53:10.082Z,26.13
2022-08-20T02:58:13.207Z,27.76
2022-08-20T03:03:22.514Z,28.43
2022-08-20T03:08:27.296Z,27.20
2022-08-20T03:13:30.080Z,26.03
2022-08-20T03:18:37.523Z,27.83
2022-08-20T03:23:41.022Z,27.96
2022-08-20T03:28:44.369Z,26.23
2022-08-20T03:33:52.980Z,27.35
2022-08-20T03:39:03.477Z,28.57
2022-08-20T03:44:07.192Z,26.97
2022-08-20T03:49:10.301Z,26.67
2022-08-20T03:54:13.104Z,28.40
2022-08-20T03:59:15.813Z,27.98
2022-08-20T04:04:18.528Z,26.17
2022-08-20T04:09:21.304Z,27.11
2022-08-20T04:14:23.983Z,28.43
2022-08-20T04:19:30.135Z,27.91
2022-08-20T04:24:35.711Z,26.13
2022-08-20T04:29:43.119Z,27.56
2022-08-20T04:34:47.330Z,28.42
2022-08-20T04:40:26.543Z,27.77
2022-08-20T04:45:29.213Z,25.56
2022-08-20T04:50:36.533Z,26.40
2022-08-20T04:55:42.903Z,27.80
2022-08-20T05:00:48.302Z,28.36
2022-08-20T05:05:52.022Z,27.93
2022-08-20T05:10:58.126Z,26.05
2022-08-20T05:16:19.494Z,26.35
2022-08-20T05:21:22.217Z,27.95
2022-08-20T05:26:26.528Z,27.39
2022-08-20T05:31:31.713Z,26.82
2022-08-20T05:36:37.213Z,28.20
2022-08-20T05:41:40.980Z,28.09
2022-08-20T05:46:45.523Z,26.55
2022-08-20T05:51:51.090Z,27.70
2022-08-20T05:56:53.949Z,28.38
2022-08-20T06:01:56.645Z,26.76
2022-08-20T06:07:05.408Z,27.03
2022-08-20T06:12:09.471Z,28.65
2022-08-20T06:17:15.350Z,27.35
2022-08-20T06:22:23.282Z,27.46
2022-08-20T06:27:29.658Z,28.41
2022-08-20T06:32:33.840Z,26.95
2022-08-20T06:37:39.417Z,27.38
2022-08-20T06:42:48.073Z,28.54
2022-08-20T06:47:53.912Z,27.15
2022-08-20T06:52:57.003Z,27.89
2022-08-20T06:58:02.726Z,29.03
2022-08-20T07:03:05.751Z,27.77
2022-08-20T07:08:14.662Z,27.19
2022-08-20T07:13:17.547Z,28.33
2022-08-20T07:18:28.416Z,29.56
2022-08-20T07:23:31.803Z,28.39
2022-08-20T07:28:34.736Z,27.67
2022-08-20T07:33:40.660Z,27.23
2022-08-20T07:38:46.757Z,27.09
2022-08-20T07:43:49.494Z,29.44
2022-08-20T07:48:52.310Z,29.38
2022-08-20T07:53:55.095Z,28.53
2022-08-20T07:58:59.943Z,28.24
2022-08-20T08:04:03.150Z,28.09
2022-08-20T08:09:09.813Z,27.73
2022-08-20T08:14:13.349Z,27.40
2022-08-20T08:19:18.364Z,27.19
2022-08-20T08:24:25.314Z,27.15
2022-08-20T08:29:30.699Z,27.02
2022-08-20T08:34:36.500Z,26.91
2022-08-20T08:39:39.277Z,26.80
2022-08-20T08:44:42.264Z,26.64
2022-08-20T08:49:47.567Z,26.57
2022-08-20T08:54:56.511Z,26.62
2022-08-20T09:00:03.913Z,28.27
2022-08-20T09:05:17.828Z,30.34
2022-08-20T09:10:22.970Z,29.73
2022-08-20T09:15:26.300Z,29.45
2022-08-20T09:20:29.265Z,29.23
2022-08-20T09:25:32.085Z,29.09
2022-08-20T09:30:35.054Z,29.12
2022-08-20T09:35:40.452Z,29.24
2022-08-20T09:40:43.382Z,29.35
2022-08-20T09:45:46.075Z,29.51
2022-08-20T09:50:50.208Z,29.59
2022-08-20T09:55:56.056Z,29.60
2022-08-20T10:01:07.362Z,29.55
2022-08-20T10:06:19.945Z,29.50
2022-08-20T10:11:22.775Z,29.41
2022-08-20T10:16:25.509Z,29.34
2022-08-20T10:21:30.097Z,29.31
2022-08-20T10:26:33.114Z,29.29
2022-08-20T10:31:35.849Z,29.16
2022-08-20T10:36:38.580Z,28.97
2022-08-20T10:41:41.607Z,28.83
2022-08-20T10:46:45.868Z,28.72
2022-08-20T10:51:48.607Z,28.72
2022-08-20T10:56:51.457Z,28.78
2022-08-20T11:01:54.240Z,28.85
2022-08-20T11:06:57.009Z,28.98
2022-08-20T11:11:59.810Z,29.16
2022-08-20T11:17:03.206Z,29.37
2022-08-20T11:22:05.919Z,29.60
2022-08-20T11:27:09.780Z,29.94
2022-08-20T11:32:12.581Z,30.37
2022-08-20T11:37:17.202Z,30.87
2022-08-20T11:42:20.161Z,31.36
2022-08-20T11:47:26.875Z,31.78
2022-08-20T11:52:30.119Z,31.94
2022-08-20T11:57:35.360Z,31.87
2022-08-20T12:02:38.130Z,31.69
2022-08-20T12:07:41.537Z,31.56
2022-08-20T12:12:44.335Z,31.54
2022-08-20T12:17:47.272Z,31.62
2022-08-20T12:22:50.189Z,31.47
2022-08-20T12:27:53.113Z,31.17
2022-08-20T12:32:56.025Z,31.00
2022-08-20T12:38:02.312Z,31.06
2022-08-20T12:43:05.595Z,31.15
2022-08-20T12:48:11.687Z,31.32
2022-08-20T12:53:14.422Z,31.39
2022-08-20T12:58:17.098Z,31.46
2022-08-20T13:03:22.073Z,31.45
2022-08-20T13:08:24.793Z,31.61
2022-08-20T13:13:27.629Z,31.74
2022-08-20T13:18:30.429Z,31.78
2022-08-20T13:23:33.121Z,31.69
2022-08-20T13:28:36.166Z,31.81
2022-08-20T13:33:38.878Z,32.04
2022-08-20T13:38:41.631Z,32.32
2022-08-20T13:43:44.326Z,32.45
2022-08-20T13:48:47.018Z,32.36
2022-08-20T13:53:49.785Z,32.31
2022-08-20T13:58:53.117Z,32.24
2022-08-20T14:03:56.018Z,32.08
2022-08-20T14:08:58.965Z,31.82
2022-08-20T14:14:02.747Z,31.50
2022-08-20T14:19:06.071Z,31.25
2022-08-20T14:24:08.796Z,30.94
2022-08-20T14:29:11.523Z,30.51
2022-08-20T14:34:14.237Z,29.78
2022-08-20T14:39:20.517Z,29.15
2022-08-20T14:44:23.411Z,28.66
2022-08-20T14:49:26.203Z,28.33
2022-08-20T14:54:29.082Z,28.01
2022-08-20T14:59:32.158Z,27.79
2022-08-20T15:04:36.061Z,27.66
2022-08-20T15:09:39.011Z,27.42
2022-08-20T15:14:41.718Z,27.12
2022-08-20T15:19:44.666Z,28.02
2022-08-20T15:24:48.341Z,28.51
2022-08-20T15:29:52.464Z,27.61
2022-08-20T15:34:55.175Z,27.17
2022-08-20T15:39:57.913Z,26.98
2022-08-20T15:45:00.730Z,28.03
2022-08-20T15:50:09.374Z,29.65
2022-08-20T15:55:17.850Z,28.45
2022-08-20T16:00:25.812Z,27.64
2022-08-20T16:05:50.486Z,27.06
2022-08-20T16:11:18.449Z,27.97
2022-08-20T16:16:33.284Z,30.03
2022-08-20T16:21:40.435Z,29.68
2022-08-20T16:27:13.423Z,28.57
2022-08-20T16:32:25.868Z,29.77
2022-08-20T16:37:33.187Z,29.27
2022-08-20T16:42:42.426Z,27.14
2022-08-20T16:47:46.955Z,27.96
2022-08-20T16:52:51.785Z,29.35
2022-08-20T16:57:54.948Z,28.62
2022-08-20T17:03:01.632Z,27.22
2022-08-20T17:08:07.450Z,28.81
2022-08-20T17:13:15.996Z,29.51
2022-08-20T17:18:27.542Z,28.91
2022-08-20T17:23:31.027Z,27.23
2022-08-20T17:28:35.704Z,28.60
2022-08-20T17:33:39.662Z,29.47
2022-08-20T17:38:52.870Z,29.89
2022-08-20T17:44:07.717Z,28.62
2022-08-20T17:49:13.108Z,27.91
2022-08-20T17:54:27.301Z,28.94
2022-08-20T18:00:00.925Z,27.48
2022-08-20T18:05:06.662Z,28.39
2022-08-20T18:10:14.502Z,29.42
2022-08-20T18:15:23.764Z,29.83
2022-08-20T18:20:37.758Z,29.24
2022-08-20T18:25:54.886Z,27.92
2022-08-20T18:31:02.112Z,28.86
2022-08-20T18:36:07.115Z,27.76
2022-08-20T18:41:30.061Z,28.00
2022-08-20T18:46:34.043Z,29.16
2022-08-20T18:51:42.616Z,29.43
2022-08-20T18:56:45.286Z,27.50
2022-08-20T19:01:49.515Z,27.65
2022-08-20T19:06:58.044Z,28.68
2022-08-20T19:12:05.139Z,29.06
2022-08-20T19:17:15.065Z,27.47
2022-08-20T19:22:20.898Z,28.04
2022-08-20T19:27:24.697Z,27.79
2022-08-20T19:32:33.010Z,26.69
2022-08-20T19:37:50.839Z,27.62
2022-08-20T19:42:56.227Z,27.91
2022-08-20T19:48:27.385Z,28.09
2022-08-20T19:53:33.412Z,26.80
2022-08-20T19:58:37.494Z,26.75
2022-08-20T20:03:40.677Z,26.65
2022-08-20T20:08:55.094Z,26.63
2022-08-20T20:14:04.518Z,26.70
2022-08-20T20:19:25.847Z,26.72
2022-08-20T20:24:31.652Z,26.81
2022-08-20T20:29:37.041Z,26.17
2022-08-20T20:34:55.066Z,25.72
2022-08-20T20:40:19.062Z,25.27
2022-08-20T20:45:32.154Z,24.99
2022-08-20T20:50:36.899Z,24.45
2022-08-20T20:55:41.911Z,23.91
2022-08-20T21:00:44.596Z,24.39
2022-08-20T21:05:47.535Z,24.54
2022-08-20T21:10:50.280Z,24.94
2022-08-20T21:15:53.038Z,25.10
2022-08-20T21:20:55.821Z,25.30
2022-08-20T21:26:00.124Z,25.36
2022-08-20T21:31:03.145Z,25.13
2022-08-20T21:36:06.402Z,25.28
2022-08-20T21:41:09.210Z,25.37
2022-08-20T21:46:12.735Z,25.57
2022-08-20T21:51:15.656Z,25.95
2022-08-20T21:56:18.527Z,26.38
2022-08-20T22:01:21.574Z,26.39
2022-08-20T22:06:24.972Z,26.67
2022-08-20T22:11:28.195Z,26.88
2022-08-20T22:16:30.972Z,26.69
2022-08-20T22:21:35.245Z,26.66
2022-08-20T22:26:40.334Z,26.72
2022-08-20T22:31:44.040Z,26.84
2022-08-20T22:36:48.054Z,26.96
2022-08-20T22:41:50.986Z,26.91
2022-08-20T22:46:56.795Z,26.72
2022-08-20T22:52:00.218Z,26.44
2022-08-20T22:57:03.439Z,26.19
2022-08-20T23:02:12.924Z,26.07
2022-08-20T23:07:17.990Z,26.23
2022-08-20T23:12:20.782Z,25.99
2022-08-20T23:17:23.745Z,26.02
2022-08-20T23:22:26.602Z,26.45
2022-08-20T23:27:29.689Z,26.70
2022-08-20T23:32:32.383Z,26.86
2022-08-20T23:37:40.300Z,26.93
2022-08-20T23:42:43.277Z,27.21
2022-08-20T23:47:46.380Z,27.36
2022-08-20T23:52:49.245Z,27.58
2022-08-20T23:57:52.370Z,27.34
